sensor_id;sensor_type;location;lat;lon;timestamp;noise_LAeq;noise_LA_min;noise_LA_max;noise_LA01;noise_LA95
36217;Laerm;22259;48.792;8.964;2023-06-04T00:01:57;40.84;37.66;45.81;;
36217;Laerm;22259;48.792;8.964;2023-06-04T00:04:24;41.38;38.33;45.67;;
36217;Laerm;22259;48.792;8.964;2023-06-04T00:06:50;41.92;38.52;50.08;;
36217;Laerm;22259;48.792;8.964;2023-06-04T00:09:15;42.14;37.70;46.15;;
36217;Laerm;22259;48.792;8.964;2023-06-04T00:11:41;41.79;37.27;47.99;;
36217;Laerm;22259;48.792;8.964;2023-06-04T00:14:06;41.76;37.92;47.76;;
36217;Laerm;22259;48.792;8.964;2023-06-04T00:16:31;42.16;38.21;47.52;;
36217;Laerm;22259;48.792;8.964;2023-06-04T00:18:57;43.05;37.92;52.23;;
36217;Laerm;22259;48.792;8.964;2023-06-04T00:21:22;41.65;37.32;47.37;;
36217;Laerm;22259;48.792;8.964;2023-06-04T00:23:48;41.40;37.83;48.97;;
36217;Laerm;22259;48.792;8.964;2023-06-04T00:26:13;41.66;38.41;46.25;;
36217;Laerm;22259;48.792;8.964;2023-06-04T00:28:38;42.09;38.05;49.92;;
36217;Laerm;22259;48.792;8.964;2023-06-04T00:31:04;41.28;37.70;45.02;;
36217;Laerm;22259;48.792;8.964;2023-06-04T00:33:30;41.24;36.74;48.12;;
36217;Laerm;22259;48.792;8.964;2023-06-04T00:35:56;41.55;37.79;46.66;;
36217;Laerm;22259;48.792;8.964;2023-06-04T00:38:21;40.92;37.37;45.76;;
36217;Laerm;22259;48.792;8.964;2023-06-04T00:40:46;40.51;37.02;44.54;;
36217;Laerm;22259;48.792;8.964;2023-06-04T00:43:12;41.18;37.37;45.70;;
36217;Laerm;22259;48.792;8.964;2023-06-04T00:45:38;40.74;37.70;44.57;;
36217;Laerm;22259;48.792;8.964;2023-06-04T00:48:04;50.67;37.56;65.85;;
36217;Laerm;22259;48.792;8.964;2023-06-04T00:50:30;41.36;37.42;50.43;;
36217;Laerm;22259;48.792;8.964;2023-06-04T00:52:58;41.30;37.70;48.22;;
36217;Laerm;22259;48.792;8.964;2023-06-04T00:55:23;41.00;37.47;44.82;;
36217;Laerm;22259;48.792;8.964;2023-06-04T00:57:49;41.12;37.47;46.67;;
36217;Laerm;22259;48.792;8.964;2023-06-04T01:00:15;41.01;36.96;50.84;;
36217;Laerm;22259;48.792;8.964;2023-06-04T01:02:41;41.26;38.09;44.86;;
36217;Laerm;22259;48.792;8.964;2023-06-04T01:05:14;40.66;37.22;47.50;;
36217;Laerm;22259;48.792;8.964;2023-06-04T01:07:41;40.47;36.74;45.41;;
36217;Laerm;22259;48.792;8.964;2023-06-04T01:10:11;40.32;37.22;46.35;;
36217;Laerm;22259;48.792;8.964;2023-06-04T01:12:39;40.48;37.66;47.04;;
36217;Laerm;22259;48.792;8.964;2023-06-04T01:15:04;53.25;37.47;74.37;;
36217;Laerm;22259;48.792;8.964;2023-06-04T01:17:40;40.09;37.32;43.60;;
36217;Laerm;22259;48.792;8.964;2023-06-04T01:20:26;40.19;37.47;42.75;;
36217;Laerm;22259;48.792;8.964;2023-06-04T01:23:02;40.50;37.70;42.65;;
36217;Laerm;22259;48.792;8.964;2023-06-04T01:25:36;40.45;37.32;42.92;;
36217;Laerm;22259;48.792;8.964;2023-06-04T01:28:04;40.87;37.42;46.04;;
36217;Laerm;22259;48.792;8.964;2023-06-04T01:30:31;40.89;37.92;44.95;;
36217;Laerm;22259;48.792;8.964;2023-06-04T01:32:58;40.56;37.52;44.67;;
36217;Laerm;22259;48.792;8.964;2023-06-04T01:35:23;41.06;37.79;46.18;;
36217;Laerm;22259;48.792;8.964;2023-06-04T01:37:49;41.67;38.29;46.48;;
36217;Laerm;22259;48.792;8.964;2023-06-04T01:40:15;41.49;37.83;45.11;;
36217;Laerm;22259;48.792;8.964;2023-06-04T01:42:43;42.43;37.96;46.90;;
36217;Laerm;22259;48.792;8.964;2023-06-04T01:45:09;41.20;37.61;45.34;;
36217;Laerm;22259;48.792;8.964;2023-06-04T01:47:34;40.11;36.91;45.08;;
36217;Laerm;22259;48.792;8.964;2023-06-04T01:50:00;41.64;37.66;51.54;;
36217;Laerm;22259;48.792;8.964;2023-06-04T01:52:26;41.01;37.37;47.33;;
36217;Laerm;22259;48.792;8.964;2023-06-04T01:54:51;41.41;37.83;47.49;;
36217;Laerm;22259;48.792;8.964;2023-06-04T01:57:20;40.40;37.17;44.65;;
36217;Laerm;22259;48.792;8.964;2023-06-04T01:59:46;40.97;37.79;47.61;;
36217;Laerm;22259;48.792;8.964;2023-06-04T02:02:11;40.93;37.47;44.68;;
36217;Laerm;22259;48.792;8.964;2023-06-04T02:04:37;40.83;37.66;48.30;;
36217;Laerm;22259;48.792;8.964;2023-06-04T02:07:02;41.20;37.88;46.27;;
36217;Laerm;22259;48.792;8.964;2023-06-04T02:09:28;40.84;37.79;44.95;;
36217;Laerm;22259;48.792;8.964;2023-06-04T02:11:53;40.54;37.52;46.40;;
36217;Laerm;22259;48.792;8.964;2023-06-04T02:14:18;41.44;38.17;48.44;;
36217;Laerm;22259;48.792;8.964;2023-06-04T02:16:44;41.49;38.01;47.10;;
36217;Laerm;22259;48.792;8.964;2023-06-04T02:19:09;52.91;38.33;70.77;;
36217;Laerm;22259;48.792;8.964;2023-06-04T02:21:38;41.74;38.25;45.38;;
36217;Laerm;22259;48.792;8.964;2023-06-04T02:24:03;41.27;38.33;44.87;;
36217;Laerm;22259;48.792;8.964;2023-06-04T02:26:28;41.75;37.66;46.70;;
36217;Laerm;22259;48.792;8.964;2023-06-04T02:28:54;42.39;38.05;50.59;;
36217;Laerm;22259;48.792;8.964;2023-06-04T02:31:19;43.25;38.17;52.16;;
36217;Laerm;22259;48.792;8.964;2023-06-04T02:33:44;44.31;39.31;53.11;;
36217;Laerm;22259;48.792;8.964;2023-06-04T02:36:10;45.19;39.75;57.94;;
36217;Laerm;22259;48.792;8.964;2023-06-04T02:38:35;50.23;40.62;67.33;;
36217;Laerm;22259;48.792;8.964;2023-06-04T02:41:00;51.23;39.46;63.47;;
36217;Laerm;22259;48.792;8.964;2023-06-04T02:43:26;51.15;40.16;65.15;;
36217;Laerm;22259;48.792;8.964;2023-06-04T02:45:51;50.45;43.19;65.24;;
36217;Laerm;22259;48.792;8.964;2023-06-04T02:48:17;54.40;43.31;71.68;;
36217;Laerm;22259;48.792;8.964;2023-06-04T02:50:42;48.96;43.83;58.64;;
36217;Laerm;22259;48.792;8.964;2023-06-04T02:53:08;50.48;43.81;68.83;;
36217;Laerm;22259;48.792;8.964;2023-06-04T02:55:39;51.59;43.44;67.47;;
36217;Laerm;22259;48.792;8.964;2023-06-04T02:58:06;47.52;43.01;56.69;;
36217;Laerm;22259;48.792;8.964;2023-06-04T03:00:33;46.51;40.08;54.07;;
36217;Laerm;22259;48.792;8.964;2023-06-04T03:02:59;52.15;42.94;66.67;;
36217;Laerm;22259;48.792;8.964;2023-06-04T03:05:27;53.09;42.81;73.32;;
36217;Laerm;22259;48.792;8.964;2023-06-04T03:07:52;55.00;42.49;69.84;;
36217;Laerm;22259;48.792;8.964;2023-06-04T03:10:18;50.63;42.09;66.64;;
36217;Laerm;22259;48.792;8.964;2023-06-04T03:12:43;46.82;41.94;54.26;;
36217;Laerm;22259;48.792;8.964;2023-06-04T03:15:09;46.91;39.37;65.33;;
36217;Laerm;22259;48.792;8.964;2023-06-04T03:17:35;43.88;39.70;60.40;;
36217;Laerm;22259;48.792;8.964;2023-06-04T03:20:00;44.28;39.78;58.92;;
36217;Laerm;22259;48.792;8.964;2023-06-04T03:22:25;43.83;39.31;59.25;;
36217;Laerm;22259;48.792;8.964;2023-06-04T03:24:51;42.76;39.55;50.76;;
36217;Laerm;22259;48.792;8.964;2023-06-04T03:27:17;42.34;39.12;54.61;;
36217;Laerm;22259;48.792;8.964;2023-06-04T03:29:43;43.04;39.40;52.60;;
36217;Laerm;22259;48.792;8.964;2023-06-04T03:32:08;43.16;39.70;51.22;;
36217;Laerm;22259;48.792;8.964;2023-06-04T03:34:33;44.51;39.78;55.13;;
36217;Laerm;22259;48.792;8.964;2023-06-04T03:36:59;44.39;41.50;49.12;;
36217;Laerm;22259;48.792;8.964;2023-06-04T03:39:24;44.19;41.77;53.08;;
36217;Laerm;22259;48.792;8.964;2023-06-04T03:41:50;44.02;41.59;51.90;;
36217;Laerm;22259;48.792;8.964;2023-06-04T03:44:16;43.64;40.36;60.54;;
36217;Laerm;22259;48.792;8.964;2023-06-04T03:46:42;42.53;38.56;57.44;;
36217;Laerm;22259;48.792;8.964;2023-06-04T03:49:08;49.28;39.08;65.92;;
36217;Laerm;22259;48.792;8.964;2023-06-04T03:51:34;44.03;39.75;55.98;;
36217;Laerm;22259;48.792;8.964;2023-06-04T03:54:00;43.22;39.28;51.89;;
36217;Laerm;22259;48.792;8.964;2023-06-04T03:56:25;42.71;39.31;49.99;;
36217;Laerm;22259;48.792;8.964;2023-06-04T03:58:53;43.48;39.52;52.69;;
36217;Laerm;22259;48.792;8.964;2023-06-04T04:01:19;42.71;38.63;53.85;;
36217;Laerm;22259;48.792;8.964;2023-06-04T04:03:44;42.74;39.34;49.10;;
36217;Laerm;22259;48.792;8.964;2023-06-04T04:06:13;42.71;38.88;57.54;;
36217;Laerm;22259;48.792;8.964;2023-06-04T04:08:39;44.42;39.61;60.40;;
36217;Laerm;22259;48.792;8.964;2023-06-04T04:11:16;44.56;38.67;67.75;;
36217;Laerm;22259;48.792;8.964;2023-06-04T04:13:41;42.92;39.21;64.82;;
36217;Laerm;22259;48.792;8.964;2023-06-04T04:16:07;49.74;39.46;66.44;;
36217;Laerm;22259;48.792;8.964;2023-06-04T04:18:33;45.86;40.25;59.71;;
36217;Laerm;22259;48.792;8.964;2023-06-04T04:20:58;41.97;39.15;49.78;;
36217;Laerm;22259;48.792;8.964;2023-06-04T04:23:24;42.12;39.46;49.95;;
36217;Laerm;22259;48.792;8.964;2023-06-04T04:25:50;42.81;39.61;62.15;;
36217;Laerm;22259;48.792;8.964;2023-06-04T04:28:15;42.34;39.37;47.03;;
36217;Laerm;22259;48.792;8.964;2023-06-04T04:30:42;43.27;40.06;48.67;;
36217;Laerm;22259;48.792;8.964;2023-06-04T04:33:09;43.18;40.11;54.03;;
36217;Laerm;22259;48.792;8.964;2023-06-04T04:35:35;42.34;39.31;54.19;;
36217;Laerm;22259;48.792;8.964;2023-06-04T04:38:01;42.56;39.67;54.68;;
36217;Laerm;22259;48.792;8.964;2023-06-04T04:40:29;42.35;39.67;57.56;;
36217;Laerm;22259;48.792;8.964;2023-06-04T04:42:54;42.81;39.67;55.06;;
36217;Laerm;22259;48.792;8.964;2023-06-04T04:45:20;42.96;39.49;58.66;;
36217;Laerm;22259;48.792;8.964;2023-06-04T04:47:46;43.77;39.31;63.98;;
36217;Laerm;22259;48.792;8.964;2023-06-04T04:50:11;42.46;38.78;56.31;;
36217;Laerm;22259;48.792;8.964;2023-06-04T04:52:37;41.65;38.74;49.65;;
36217;Laerm;22259;48.792;8.964;2023-06-04T04:55:02;41.83;38.81;48.18;;
36217;Laerm;22259;48.792;8.964;2023-06-04T04:57:28;42.80;38.98;58.98;;
36217;Laerm;22259;48.792;8.964;2023-06-04T04:59:53;41.97;38.81;48.76;;
36217;Laerm;22259;48.792;8.964;2023-06-04T05:02:18;43.02;38.78;53.18;;
36217;Laerm;22259;48.792;8.964;2023-06-04T05:04:44;41.82;38.41;52.56;;
36217;Laerm;22259;48.792;8.964;2023-06-04T05:07:09;42.16;38.49;57.65;;
36217;Laerm;22259;48.792;8.964;2023-06-04T05:09:35;43.39;38.67;68.25;;
36217;Laerm;22259;48.792;8.964;2023-06-04T05:12:00;43.06;38.63;64.70;;
36217;Laerm;22259;48.792;8.964;2023-06-04T05:14:26;41.45;38.56;48.88;;
36217;Laerm;22259;48.792;8.964;2023-06-04T05:16:52;41.05;37.75;43.90;;
36217;Laerm;22259;48.792;8.964;2023-06-04T05:19:17;41.66;38.60;46.70;;
36217;Laerm;22259;48.792;8.964;2023-06-04T05:21:42;41.84;38.81;49.77;;
36217;Laerm;22259;48.792;8.964;2023-06-04T05:24:09;41.55;38.13;49.72;;
36217;Laerm;22259;48.792;8.964;2023-06-04T05:26:35;41.18;37.83;53.69;;
36217;Laerm;22259;48.792;8.964;2023-06-04T05:29:00;43.54;39.05;61.49;;
36217;Laerm;22259;48.792;8.964;2023-06-04T05:31:26;41.57;38.88;46.50;;
36217;Laerm;22259;48.792;8.964;2023-06-04T05:33:52;42.52;38.99;60.08;;
36217;Laerm;22259;48.792;8.964;2023-06-04T05:36:17;43.20;38.95;52.52;;
36217;Laerm;22259;48.792;8.964;2023-06-04T05:38:43;42.96;38.17;57.21;;
36217;Laerm;22259;48.792;8.964;2023-06-04T05:41:08;41.32;38.74;50.89;;
36217;Laerm;22259;48.792;8.964;2023-06-04T05:43:33;41.64;38.29;58.10;;
36217;Laerm;22259;48.792;8.964;2023-06-04T05:45:59;49.53;38.60;68.03;;
36217;Laerm;22259;48.792;8.964;2023-06-04T05:48:24;51.12;38.09;70.25;;
36217;Laerm;22259;48.792;8.964;2023-06-04T05:50:50;42.27;39.40;55.88;;
36217;Laerm;22259;48.792;8.964;2023-06-04T05:53:15;43.95;38.56;58.35;;
36217;Laerm;22259;48.792;8.964;2023-06-04T05:55:41;44.19;38.95;57.46;;
36217;Laerm;22259;48.792;8.964;2023-06-04T05:58:06;43.18;38.92;55.24;;
36217;Laerm;22259;48.792;8.964;2023-06-04T06:00:32;42.21;39.02;51.79;;
36217;Laerm;22259;48.792;8.964;2023-06-04T06:02:57;41.94;39.02;64.00;;
36217;Laerm;22259;48.792;8.964;2023-06-04T06:05:22;42.93;39.12;55.90;;
36217;Laerm;22259;48.792;8.964;2023-06-04T06:07:48;45.62;39.05;58.03;;
36217;Laerm;22259;48.792;8.964;2023-06-04T06:10:13;44.64;38.52;56.92;;
36217;Laerm;22259;48.792;8.964;2023-06-04T06:12:40;42.45;38.95;54.42;;
36217;Laerm;22259;48.792;8.964;2023-06-04T06:15:06;49.35;38.56;64.91;;
36217;Laerm;22259;48.792;8.964;2023-06-04T06:17:31;44.57;39.52;56.89;;
36217;Laerm;22259;48.792;8.964;2023-06-04T06:19:57;44.31;39.40;55.92;;
36217;Laerm;22259;48.792;8.964;2023-06-04T06:22:23;44.22;39.18;59.37;;
36217;Laerm;22259;48.792;8.964;2023-06-04T06:24:48;42.22;39.02;55.79;;
36217;Laerm;22259;48.792;8.964;2023-06-04T06:27:14;41.78;38.17;50.00;;
36217;Laerm;22259;48.792;8.964;2023-06-04T06:29:41;42.03;38.98;50.88;;
36217;Laerm;22259;48.792;8.964;2023-06-04T06:32:07;42.23;39.08;50.33;;
36217;Laerm;22259;48.792;8.964;2023-06-04T06:34:32;42.73;39.25;51.73;;
36217;Laerm;22259;48.792;8.964;2023-06-04T06:36:57;42.95;39.15;53.01;;
36217;Laerm;22259;48.792;8.964;2023-06-04T06:39:23;45.28;39.55;61.47;;
36217;Laerm;22259;48.792;8.964;2023-06-04T06:41:48;43.56;39.73;53.29;;
36217;Laerm;22259;48.792;8.964;2023-06-04T06:44:14;42.88;38.98;64.60;;
36217;Laerm;22259;48.792;8.964;2023-06-04T06:46:39;53.14;39.21;70.38;;
36217;Laerm;22259;48.792;8.964;2023-06-04T06:49:05;42.63;39.46;57.04;;
36217;Laerm;22259;48.792;8.964;2023-06-04T06:51:30;42.95;38.88;58.32;;
36217;Laerm;22259;48.792;8.964;2023-06-04T06:53:56;42.36;39.31;50.83;;
36217;Laerm;22259;48.792;8.964;2023-06-04T06:56:21;42.96;38.81;59.21;;
36217;Laerm;22259;48.792;8.964;2023-06-04T06:58:47;43.09;39.28;64.66;;
36217;Laerm;22259;48.792;8.964;2023-06-04T07:01:13;43.06;39.43;55.34;;
36217;Laerm;22259;48.792;8.964;2023-06-04T07:03:38;42.56;39.40;52.81;;
36217;Laerm;22259;48.792;8.964;2023-06-04T07:06:05;42.85;39.70;49.87;;
36217;Laerm;22259;48.792;8.964;2023-06-04T07:08:31;42.47;38.81;52.02;;
36217;Laerm;22259;48.792;8.964;2023-06-04T07:10:56;42.31;39.12;54.97;;
36217;Laerm;22259;48.792;8.964;2023-06-04T07:13:22;42.98;40.00;53.56;;
36217;Laerm;22259;48.792;8.964;2023-06-04T07:15:47;54.22;40.46;71.11;;
36217;Laerm;22259;48.792;8.964;2023-06-04T07:18:13;48.32;39.34;63.27;;
36217;Laerm;22259;48.792;8.964;2023-06-04T07:20:38;48.90;40.18;68.84;;
36217;Laerm;22259;48.792;8.964;2023-06-04T07:23:04;49.14;39.92;68.44;;
36217;Laerm;22259;48.792;8.964;2023-06-04T07:25:32;43.55;40.23;51.95;;
36217;Laerm;22259;48.792;8.964;2023-06-04T07:27:58;43.82;40.50;52.58;;
36217;Laerm;22259;48.792;8.964;2023-06-04T07:30:26;45.91;40.53;62.80;;
36217;Laerm;22259;48.792;8.964;2023-06-04T07:32:51;49.71;40.21;65.22;;
36217;Laerm;22259;48.792;8.964;2023-06-04T07:35:16;47.39;40.11;65.52;;
36217;Laerm;22259;48.792;8.964;2023-06-04T07:37:42;44.32;40.62;60.89;;
36217;Laerm;22259;48.792;8.964;2023-06-04T07:40:10;42.92;40.87;51.34;;
36217;Laerm;22259;48.792;8.964;2023-06-04T07:42:36;42.72;40.31;50.55;;
36217;Laerm;22259;48.792;8.964;2023-06-04T07:45:01;55.37;40.11;74.68;;
36217;Laerm;22259;48.792;8.964;2023-06-04T07:47:27;52.09;40.60;70.82;;
36217;Laerm;22259;48.792;8.964;2023-06-04T07:49:52;42.88;40.28;51.57;;
36217;Laerm;22259;48.792;8.964;2023-06-04T07:52:18;44.49;40.43;65.16;;
36217;Laerm;22259;48.792;8.964;2023-06-04T07:54:43;45.09;41.06;59.20;;
36217;Laerm;22259;48.792;8.964;2023-06-04T07:57:08;44.38;41.70;57.47;;
36217;Laerm;22259;48.792;8.964;2023-06-04T07:59:34;42.79;40.76;47.17;;
36217;Laerm;22259;48.792;8.964;2023-06-04T08:01:59;43.54;41.10;51.24;;
36217;Laerm;22259;48.792;8.964;2023-06-04T08:04:25;42.92;40.71;50.50;;
36217;Laerm;22259;48.792;8.964;2023-06-04T08:06:51;43.30;40.57;54.07;;
36217;Laerm;22259;48.792;8.964;2023-06-04T08:09:16;42.75;40.13;47.93;;
36217;Laerm;22259;48.792;8.964;2023-06-04T08:11:42;42.44;40.05;49.45;;
36217;Laerm;22259;48.792;8.964;2023-06-04T08:14:10;42.94;40.21;52.60;;
36217;Laerm;22259;48.792;8.964;2023-06-04T08:16:36;56.38;40.46;71.50;;
36217;Laerm;22259;48.792;8.964;2023-06-04T08:19:01;42.53;40.23;50.35;;
36217;Laerm;22259;48.792;8.964;2023-06-04T08:21:27;42.64;39.61;53.78;;
36217;Laerm;22259;48.792;8.964;2023-06-04T08:23:53;44.10;40.41;55.49;;
36217;Laerm;22259;48.792;8.964;2023-06-04T08:26:18;45.64;40.26;62.90;;
36217;Laerm;22259;48.792;8.964;2023-06-04T08:28:44;49.02;40.71;66.86;;
36217;Laerm;22259;48.792;8.964;2023-06-04T08:31:10;47.61;39.43;63.44;;
36217;Laerm;22259;48.792;8.964;2023-06-04T08:33:35;48.22;41.00;63.40;;
36217;Laerm;22259;48.792;8.964;2023-06-04T08:36:01;44.45;40.95;62.57;;
36217;Laerm;22259;48.792;8.964;2023-06-04T08:38:26;43.15;41.14;50.99;;
36217;Laerm;22259;48.792;8.964;2023-06-04T08:40:52;44.31;41.59;61.08;;
36217;Laerm;22259;48.792;8.964;2023-06-04T08:43:18;43.44;40.69;51.21;;
36217;Laerm;22259;48.792;8.964;2023-06-04T08:45:44;56.07;41.53;70.95;;
36217;Laerm;22259;48.792;8.964;2023-06-04T08:48:14;43.70;41.40;52.56;;
36217;Laerm;22259;48.792;8.964;2023-06-04T08:50:40;44.13;40.69;58.70;;
36217;Laerm;22259;48.792;8.964;2023-06-04T08:53:07;46.12;41.91;61.23;;
36217;Laerm;22259;48.792;8.964;2023-06-04T08:55:33;43.85;41.32;54.40;;
36217;Laerm;22259;48.792;8.964;2023-06-04T08:57:59;44.63;42.04;57.15;;
36217;Laerm;22259;48.792;8.964;2023-06-04T09:00:27;45.72;42.03;61.16;;
36217;Laerm;22259;48.792;8.964;2023-06-04T09:02:52;46.79;42.93;58.50;;
36217;Laerm;22259;48.792;8.964;2023-06-04T09:05:22;45.12;41.89;61.17;;
36217;Laerm;22259;48.792;8.964;2023-06-04T09:07:47;45.05;41.55;56.69;;
36217;Laerm;22259;48.792;8.964;2023-06-04T09:10:15;44.32;41.34;56.06;;
36217;Laerm;22259;48.792;8.964;2023-06-04T09:12:42;44.46;41.24;61.12;;
36217;Laerm;22259;48.792;8.964;2023-06-04T09:15:09;54.78;41.30;71.96;;
36217;Laerm;22259;48.792;8.964;2023-06-04T09:17:34;53.22;42.01;68.54;;
36217;Laerm;22259;48.792;8.964;2023-06-04T09:20:00;44.65;42.16;54.25;;
36217;Laerm;22259;48.792;8.964;2023-06-04T09:22:35;44.44;41.68;52.64;;
36217;Laerm;22259;48.792;8.964;2023-06-04T09:25:02;43.41;40.82;51.49;;
36217;Laerm;22259;48.792;8.964;2023-06-04T09:27:28;44.12;41.22;53.10;;
36217;Laerm;22259;48.792;8.964;2023-06-04T09:30:02;43.78;40.82;52.08;;
36217;Laerm;22259;48.792;8.964;2023-06-04T09:32:29;44.05;41.46;60.39;;
36217;Laerm;22259;48.792;8.964;2023-06-04T09:37:42;43.14;40.28;49.43;;
36217;Laerm;22259;48.792;8.964;2023-06-04T09:40:08;44.03;40.78;56.97;;
36217;Laerm;22259;48.792;8.964;2023-06-04T09:42:46;45.56;41.04;66.25;;
36217;Laerm;22259;48.792;8.964;2023-06-04T09:45:25;54.45;40.95;72.20;;
36217;Laerm;22259;48.792;8.964;2023-06-04T09:47:51;53.45;41.38;66.75;;
36217;Laerm;22259;48.792;8.964;2023-06-04T09:50:16;49.50;40.26;64.76;;
36217;Laerm;22259;48.792;8.964;2023-06-04T09:52:50;50.13;41.10;64.24;;
36217;Laerm;22259;48.792;8.964;2023-06-04T09:55:16;43.90;41.14;56.70;;
36217;Laerm;22259;48.792;8.964;2023-06-04T09:57:47;46.50;40.41;68.32;;
36217;Laerm;22259;48.792;8.964;2023-06-04T10:00:19;45.50;40.62;61.47;;
36217;Laerm;22259;48.792;8.964;2023-06-04T10:02:46;44.47;40.67;59.65;;
36217;Laerm;22259;48.792;8.964;2023-06-04T10:05:11;43.54;40.60;55.22;;
36217;Laerm;22259;48.792;8.964;2023-06-04T10:07:39;43.29;40.62;53.04;;
36217;Laerm;22259;48.792;8.964;2023-06-04T10:10:06;46.15;40.54;61.33;;
36217;Laerm;22259;48.792;8.964;2023-06-04T10:12:33;49.64;40.30;75.68;;
36217;Laerm;22259;48.792;8.964;2023-06-04T10:15:11;56.36;39.92;77.18;;
36217;Laerm;22259;48.792;8.964;2023-06-04T10:17:37;61.40;40.76;85.29;;
36217;Laerm;22259;48.792;8.964;2023-06-04T10:20:02;57.60;40.28;84.47;;
36217;Laerm;22259;48.792;8.964;2023-06-04T10:22:34;43.94;39.43;55.86;;
36217;Laerm;22259;48.792;8.964;2023-06-04T10:25:00;45.33;41.20;63.25;;
36217;Laerm;22259;48.792;8.964;2023-06-04T10:27:25;45.65;40.31;60.80;;
36217;Laerm;22259;48.792;8.964;2023-06-04T10:29:51;44.46;40.36;59.28;;
36217;Laerm;22259;48.792;8.964;2023-06-04T10:32:17;45.35;40.87;63.01;;
36217;Laerm;22259;48.792;8.964;2023-06-04T10:34:43;43.46;40.67;53.40;;
36217;Laerm;22259;48.792;8.964;2023-06-04T10:37:21;43.98;40.55;51.69;;
36217;Laerm;22259;48.792;8.964;2023-06-04T10:39:53;44.31;40.05;56.53;;
36217;Laerm;22259;48.792;8.964;2023-06-04T10:42:19;43.96;40.33;58.51;;
36217;Laerm;22259;48.792;8.964;2023-06-04T10:44:46;43.88;40.50;53.90;;
36217;Laerm;22259;48.792;8.964;2023-06-04T10:47:22;55.93;40.91;71.03;;
36217;Laerm;22259;48.792;8.964;2023-06-04T10:49:49;43.32;39.95;55.04;;
36217;Laerm;22259;48.792;8.964;2023-06-04T10:52:14;42.66;39.78;53.89;;
36217;Laerm;22259;48.792;8.964;2023-06-04T10:54:41;46.27;40.13;69.87;;
36217;Laerm;22259;48.792;8.964;2023-06-04T10:57:13;50.75;39.73;67.77;;
36217;Laerm;22259;48.792;8.964;2023-06-04T10:59:39;50.61;40.16;68.02;;
36217;Laerm;22259;48.792;8.964;2023-06-04T11:02:05;52.74;40.13;72.03;;
36217;Laerm;22259;48.792;8.964;2023-06-04T11:04:31;51.06;40.21;71.24;;
36217;Laerm;22259;48.792;8.964;2023-06-04T11:07:00;42.24;39.58;52.06;;
36217;Laerm;22259;48.792;8.964;2023-06-04T11:09:27;42.47;39.73;53.01;;
36217;Laerm;22259;48.792;8.964;2023-06-04T11:11:58;43.72;41.48;61.72;;
36217;Laerm;22259;48.792;8.964;2023-06-04T11:14:23;44.07;40.48;55.30;;
36217;Laerm;22259;48.792;8.964;2023-06-04T11:16:49;55.98;41.26;69.76;;
36217;Laerm;22259;48.792;8.964;2023-06-04T11:19:14;44.16;40.00;58.60;;
36217;Laerm;22259;48.792;8.964;2023-06-04T11:21:40;43.69;39.37;62.76;;
36217;Laerm;22259;48.792;8.964;2023-06-04T11:24:05;41.71;38.74;50.56;;
36217;Laerm;22259;48.792;8.964;2023-06-04T11:26:31;41.71;38.95;50.03;;
36217;Laerm;22259;48.792;8.964;2023-06-04T11:28:58;43.29;40.43;51.77;;
36217;Laerm;22259;48.792;8.964;2023-06-04T11:31:23;43.24;40.57;55.21;;
36217;Laerm;22259;48.792;8.964;2023-06-04T11:33:49;43.49;39.89;53.12;;
36217;Laerm;22259;48.792;8.964;2023-06-04T11:36:24;43.81;38.98;53.73;;
36217;Laerm;22259;48.792;8.964;2023-06-04T11:38:54;43.18;39.52;52.93;;
36217;Laerm;22259;48.792;8.964;2023-06-04T11:41:20;44.09;39.84;54.26;;
36217;Laerm;22259;48.792;8.964;2023-06-04T11:43:48;43.32;40.11;54.84;;
36217;Laerm;22259;48.792;8.964;2023-06-04T11:46:14;56.91;40.31;71.93;;
36217;Laerm;22259;48.792;8.964;2023-06-04T11:48:39;42.42;39.81;49.96;;
36217;Laerm;22259;48.792;8.964;2023-06-04T11:51:06;43.23;39.52;56.30;;
36217;Laerm;22259;48.792;8.964;2023-06-04T11:53:33;42.07;39.21;49.50;;
36217;Laerm;22259;48.792;8.964;2023-06-04T11:55:59;42.78;39.70;52.87;;
36217;Laerm;22259;48.792;8.964;2023-06-04T11:58:25;52.49;39.25;75.88;;
36217;Laerm;22259;48.792;8.964;2023-06-04T12:00:50;42.98;39.12;54.06;;
36217;Laerm;22259;48.792;8.964;2023-06-04T12:03:16;46.20;40.13;60.53;;
36217;Laerm;22259;48.792;8.964;2023-06-04T12:05:41;47.65;39.87;63.88;;
36217;Laerm;22259;48.792;8.964;2023-06-04T12:08:08;44.57;38.92;59.84;;
36217;Laerm;22259;48.792;8.964;2023-06-04T12:10:41;43.35;40.46;53.22;;
36217;Laerm;22259;48.792;8.964;2023-06-04T12:13:07;48.65;39.52;67.34;;
36217;Laerm;22259;48.792;8.964;2023-06-04T12:15:33;55.15;39.63;72.50;;
36217;Laerm;22259;48.792;8.964;2023-06-04T12:17:58;62.14;40.36;83.08;;
36217;Laerm;22259;48.792;8.964;2023-06-04T12:20:33;52.39;40.46;70.72;;
36217;Laerm;22259;48.792;8.964;2023-06-04T12:23:02;56.01;39.89;72.08;;
36217;Laerm;22259;48.792;8.964;2023-06-04T12:25:28;46.18;38.85;66.58;;
36217;Laerm;22259;48.792;8.964;2023-06-04T12:27:55;43.35;39.75;59.11;;
36217;Laerm;22259;48.792;8.964;2023-06-04T12:30:21;50.02;39.52;65.25;;
36217;Laerm;22259;48.792;8.964;2023-06-04T12:32:50;43.24;39.64;59.52;;
36217;Laerm;22259;48.792;8.964;2023-06-04T12:35:15;46.56;40.11;63.86;;
36217;Laerm;22259;48.792;8.964;2023-06-04T12:37:41;54.92;39.40;73.04;;
36217;Laerm;22259;48.792;8.964;2023-06-04T12:40:07;42.70;39.97;55.56;;
36217;Laerm;22259;48.792;8.964;2023-06-04T12:42:32;43.11;40.28;57.17;;
36217;Laerm;22259;48.792;8.964;2023-06-04T12:44:57;54.66;39.97;70.69;;
36217;Laerm;22259;48.792;8.964;2023-06-04T12:47:23;52.70;39.73;69.85;;
36217;Laerm;22259;48.792;8.964;2023-06-04T12:49:48;43.09;40.46;52.61;;
36217;Laerm;22259;48.792;8.964;2023-06-04T12:52:16;45.39;39.89;64.41;;
36217;Laerm;22259;48.792;8.964;2023-06-04T12:54:41;42.07;39.78;47.90;;
36217;Laerm;22259;48.792;8.964;2023-06-04T12:57:07;42.16;39.81;51.60;;
36217;Laerm;22259;48.792;8.964;2023-06-04T12:59:32;46.07;40.33;59.03;;
36217;Laerm;22259;48.792;8.964;2023-06-04T13:01:58;52.40;40.13;66.32;;
36217;Laerm;22259;48.792;8.964;2023-06-04T13:04:23;42.43;39.12;51.33;;
36217;Laerm;22259;48.792;8.964;2023-06-04T13:06:48;43.58;39.81;55.21;;
36217;Laerm;22259;48.792;8.964;2023-06-04T13:09:14;43.58;40.00;56.04;;
36217;Laerm;22259;48.792;8.964;2023-06-04T13:11:41;42.87;39.71;58.34;;
36217;Laerm;22259;48.792;8.964;2023-06-04T13:14:07;42.49;40.11;51.44;;
36217;Laerm;22259;48.792;8.964;2023-06-04T13:16:32;54.23;39.40;70.51;;
36217;Laerm;22259;48.792;8.964;2023-06-04T13:18:58;43.39;39.34;52.75;;
36217;Laerm;22259;48.792;8.964;2023-06-04T13:21:23;53.35;39.81;70.42;;
36217;Laerm;22259;48.792;8.964;2023-06-04T13:23:48;42.97;39.97;53.31;;
36217;Laerm;22259;48.792;8.964;2023-06-04T13:26:18;44.08;39.05;57.78;;
36217;Laerm;22259;48.792;8.964;2023-06-04T13:28:44;45.23;39.12;58.54;;
36217;Laerm;22259;48.792;8.964;2023-06-04T13:31:09;45.53;39.31;59.20;;
36217;Laerm;22259;48.792;8.964;2023-06-04T13:33:34;43.93;41.12;52.15;;
36217;Laerm;22259;48.792;8.964;2023-06-04T13:36:02;45.75;40.28;57.33;;
36217;Laerm;22259;48.792;8.964;2023-06-04T13:38:27;43.57;40.76;52.47;;
36217;Laerm;22259;48.792;8.964;2023-06-04T13:40:53;43.89;41.28;51.19;;
36217;Laerm;22259;48.792;8.964;2023-06-04T13:43:18;52.42;40.95;67.42;;